Time;durP1;ratioP1;P1;durP2;ratioP2;P2;SDS_P1;SDS_P2;PMS_P1;PMS_P2;Temp;Humidity;BMP_temperature;BMP_pressure;BME280_temperature;BME280_humidity;BME280_pressure;Samples;Min_cycle;Max_cycle;Signal;HPM_P1;HPM_P2
2020/12/01 19:42:59;;;;;;;;;10.00;9.00;;;;;11.91;57.07;100628.47;5113371;27;13389;-66
2020/12/01 19:45:27;;;;;;;;;19.67;19.00;;;;;12.34;56.57;100615.72;5097174;28;8829;-65
2020/12/01 19:47:53;;;;;;;;;7.00;7.00;;;;;12.34;55.34;100609.56;5094129;28;8931;-65
2020/12/01 19:50:21;;;;;;;;;12.00;10.67;;;;;12.36;56.00;100603.47;5097710;28;11518;-65
2020/12/01 19:52:47;;;;;;;;;14.33;11.00;;;;;12.65;55.10;100607.16;5093722;28;11536;-65
2020/12/01 19:55:13;;;;;;;;;16.33;12.67;;;;;12.42;56.10;100586.88;5097744;28;11577;-64
2020/12/01 19:57:40;;;;;;;;;3.00;2.00;;;;;12.56;54.89;100590.47;5094815;28;11597;-65
2020/12/01 20:00:08;;;;;;;;;17.33;14.67;;;;;12.28;56.05;100591.16;5096686;28;11590;-66
2020/12/01 20:02:34;;;;;;;;;14.00;11.67;;;;;12.62;55.98;100580.84;5095087;28;11520;-65
2020/12/01 20:05:00;;;;;;;;;32.00;28.00;;;;;12.68;55.78;100601.03;5094818;28;11530;-66
2020/12/01 20:07:27;;;;;;;;;16.33;12.67;;;;;12.15;57.05;100605.06;5092727;28;8864;-66
2020/12/01 20:09:54;;;;;;;;;12.00;11.00;;;;;11.77;57.76;100614.38;5093007;28;12419;-67
2020/12/01 20:12:20;;;;;;;;;12.00;9.67;;;;;12.33;56.87;100615.69;5097449;28;11518;-70
2020/12/01 20:14:47;;;;;;;;;18.67;16.33;;;;;12.56;55.53;100612.34;5093346;28;8839;-71
2020/12/01 20:17:18;;;;;;;;;12.33;11.00;;;;;11.82;57.40;100617.91;5097122;28;8933;-71
2020/12/01 20:19:44;;;;;;;;;9.67;9.67;;;;;11.93;56.92;100600.53;5092626;28;12298;-69
2020/12/01 20:22:11;;;;;;;;;7.25;7.00;;;;;11.67;57.42;100607.28;5094611;28;11468;-72
2020/12/01 20:24:37;;;;;;;;;7.67;7.67;;;;;12.27;56.59;100618.28;5095008;28;11499;-71
2020/12/01 20:27:04;;;;;;;;;8.00;8.00;;;;;11.95;55.87;100583.03;5094273;28;11493;-68
2020/12/01 20:29:31;;;;;;;;;7.00;7.00;;;;;12.00;55.97;100597.06;5093012;28;11499;-70
2020/12/01 20:31:57;;;;;;;;;3.50;2.00;;;;;11.74;55.61;100604.72;5093289;28;11602;-70
2020/12/01 20:34:24;;;;;;;;;3.25;3.00;;;;;11.73;56.14;100612.56;5089797;28;11623;-71
2020/12/01 20:37:33;;;;;;;;;5.25;3.75;;;;;11.90;56.89;100600.47;5090081;28;11521;-71
2020/12/01 20:40:21;;;;;;;;;5.00;5.00;;;;;12.38;56.18;100595.59;5089296;28;11517;-70
2020/12/01 20:42:47;;;;;;;;;12.00;8.00;;;;;12.50;56.44;100595.66;5094747;28;11618;-72
2020/12/01 20:45:13;;;;;;;;;7.25;5.25;;;;;12.61;55.33;100588.72;5093801;28;11460;-68
2020/12/01 20:47:40;;;;;;;;;8.75;7.50;;;;;11.82;57.54;100586.44;5092864;28;11502;-70
2020/12/01 20:50:07;;;;;;;;;8.33;8.00;;;;;12.03;57.72;100590.09;5093814;28;11503;-69
2020/12/01 20:52:36;;;;;;;;;12.67;11.00;;;;;12.73;55.78;100578.31;5091359;28;12248;-71
2020/12/01 20:55:03;;;;;;;;;8.50;8.25;;;;;12.15;55.49;100556.09;5077632;28;11559;-70
2020/12/01 20:57:30;;;;;;;;;16.67;14.00;;;;;12.68;55.74;100574.78;5076790;28;11509;-69
2020/12/01 20:59:56;;;;;;;;;6.50;6.00;;;;;12.67;54.37;100573.88;5077738;28;11554;-68
2020/12/01 21:02:22;;;;;;;;;1.00;1.00;;;;;12.23;55.69;100557.00;5076336;28;11517;-69
2020/12/01 21:04:49;;;;;;;;;2.50;2.00;;;;;12.59;55.08;100569.47;5079093;28;11520;-68
2020/12/01 21:07:16;;;;;;;;;4.50;3.25;;;;;12.28;56.22;100554.41;5078257;28;12180;-68
2020/12/01 21:09:43;;;;;;;;;6.00;3.00;;;;;12.66;55.10;100550.22;5077444;28;11556;-68
2020/12/01 21:12:18;;;;;;;;;1.25;1.25;;;;;12.60;55.77;100565.97;5077967;28;11604;-68
2020/12/01 21:14:46;;;;;;;;;1.00;1.00;;;;;12.89;54.85;100557.34;5080403;28;11613;-70
2020/12/01 21:17:18;;;;;;;;;2.00;0.75;;;;;12.57;55.38;100560.72;5082246;28;11471;-68
2020/12/01 21:19:45;;;;;;;;;1.25;1.25;;;;;12.79;54.43;100562.56;5078320;28;11473;-68
2020/12/01 21:22:21;;;;;;;;;1.00;1.00;;;;;12.92;55.02;100564.34;5082799;28;11486;-71
2020/12/01 21:24:54;;;;;;;;;1.00;1.00;;;;;12.57;55.36;100542.31;5078097;28;11472;-71
2020/12/01 21:27:27;;;;;;;;;2.00;2.00;;;;;12.81;55.73;100556.44;5081656;28;11516;-69
2020/12/01 21:29:56;;;;;;;;;4.00;4.00;;;;;12.84;55.10;100555.56;5077958;28;11770;-66
2020/12/01 21:32:24;;;;;;;;;4.00;3.00;;;;;12.72;54.80;100539.78;5076792;28;11495;-68
2020/12/01 21:34:56;;;;;;;;;3.25;1.75;;;;;12.72;54.45;100529.25;5075504;28;12334;-68
2020/12/01 21:37:25;;;;;;;;;1.00;1.00;;;;;12.94;53.93;100531.09;5076858;28;11507;-68
2020/12/01 21:39:52;;;;;;;;;0.00;0.00;;;;;13.07;53.07;100519.75;5077535;28;11508;-68
2020/12/01 21:42:43;;;;;;;;;3.00;1.00;;;;;13.09;52.82;100520.63;5084400;28;11537;-69
2020/12/01 21:45:14;;;;;;;;;2.00;2.00;;;;;13.00;53.98;100520.63;5081282;28;11490;-68
2020/12/01 21:47:41;;;;;;;;;1.25;1.25;;;;;12.97;53.44;100510.09;5077877;28;11596;-68
2020/12/01 21:50:08;;;;;;;;;2.00;2.00;;;;;12.46;54.28;100512.50;5078919;28;11494;-67
2020/12/01 21:53:15;;;;;;;;;0.00;0.00;;;;;12.68;53.95;100516.97;5080025;28;11484;-67
2020/12/01 21:56:14;;;;;;;;;2.75;0.00;;;;;13.00;52.98;100525.88;5075976;28;12483;-67
2020/12/01 21:59:07;;;;;;;;;0.00;0.00;;;;;13.01;52.52;100523.22;5076235;28;11531;-68
2020/12/01 22:02:03;;;;;;;;;0.00;0.00;;;;;13.15;52.38;100536.41;5080468;28;11497;-68
2020/12/01 22:05:07;;;;;;;;;0.00;0.00;;;;;13.28;51.98;100538.22;5072372;28;11553;-69
2020/12/01 22:07:46;;;;;;;;;1.00;1.00;;;;;13.14;52.64;100521.50;5065656;28;11488;-68
2020/12/01 22:10:21;;;;;;;;;1.75;0.00;;;;;12.91;52.54;100525.81;5081689;28;11550;-68
2020/12/01 22:12:56;;;;;;;;;2.00;2.00;;;;;12.95;53.08;100527.59;5075743;28;11550;-68
2020/12/01 22:15:31;;;;;;;;;2.00;2.00;;;;;12.80;53.65;100523.16;5078204;28;11489;-68
2020/12/01 22:17:59;;;;;;;;;1.00;1.00;;;;;12.57;53.94;100518.69;5079454;28;12313;-68
2020/12/01 22:20:29;;;;;;;;;2.50;1.50;;;;;13.03;53.02;100515.34;5079994;28;11483;-68
2020/12/01 22:23:20;;;;;;;;;3.00;2.00;;;;;13.09;53.01;100520.63;5079143;28;12298;-68
2020/12/01 22:25:52;;;;;;;;;2.00;2.00;;;;;12.85;53.39;100510.03;5081657;28;11631;-68
2020/12/01 22:28:36;;;;;;;;;1.25;1.25;;;;;13.00;53.38;100510.13;5077550;28;11493;-68
2020/12/01 22:31:51;;;;;;;;;0.50;0.50;;;;;12.89;53.95;100509.16;5079262;28;11479;-68
2020/12/01 22:34:51;;;;;;;;;2.00;2.00;;;;;12.91;53.24;100504.78;5074623;28;11582;-68
2020/12/01 22:37:20;;;;;;;;;1.75;1.00;;;;;12.61;52.79;100491.53;5076770;28;11485;-68
2020/12/01 22:39:48;;;;;;;;;1.00;1.00;;;;;12.93;52.62;100498.66;5079412;28;11489;-68
2020/12/01 22:42:18;;;;;;;;;0.50;0.00;;;;;13.01;52.55;100490.81;5075953;28;11505;-68
2020/12/01 22:45:11;;;;;;;;;0.25;0.25;;;;;12.64;53.40;100478.41;5079787;28;11467;-69
2020/12/01 22:48:13;;;;;;;;;0.00;0.00;;;;;12.63;53.87;100492.44;5077201;28;11550;-68
2020/12/01 22:51:09;;;;;;;;;1.00;1.00;;;;;12.97;53.72;100486.44;5079871;28;11492;-69
2020/12/01 22:53:52;;;;;;;;;3.00;0.00;;;;;12.67;55.23;100488.97;5079657;28;11465;-68
2020/12/01 22:56:39;;;;;;;;;0.00;0.00;;;;;12.61;55.00;100462.63;5079619;28;11495;-69
2020/12/01 22:59:07;;;;;;;;;0.00;0.00;;;;;12.58;55.59;100478.41;5079495;28;11492;-68
2020/12/01 23:01:33;;;;;;;;;1.00;0.25;;;;;12.55;55.94;100478.38;5078519;28;11496;-67
2020/12/01 23:04:00;;;;;;;;;0.00;0.00;;;;;12.92;55.65;100475.00;5078564;28;12217;-68
2020/12/01 23:06:30;;;;;;;;;0.67;0.67;;;;;12.89;55.95;100485.50;5095058;22;11478;-65
2020/12/01 23:09:03;;;;;;;;;1.00;1.00;;;;;12.65;56.54;100474.91;5038591;28;12367;-66
2020/12/01 23:11:37;;;;;;;;;2.00;2.00;;;;;12.81;56.94;100471.47;5038564;28;12308;-67
2020/12/01 23:14:10;;;;;;;;;2.00;2.00;;;;;13.03;56.05;100475.94;5039320;28;11563;-66
2020/12/01 23:16:40;;;;;;;;;2.00;2.00;;;;;12.91;56.87;100473.25;5037192;28;11505;-67
2020/12/01 23:19:08;;;;;;;;;3.50;3.50;;;;;12.51;58.52;100471.38;5040403;28;11517;-67
2020/12/01 23:21:36;;;;;;;;;3.75;0.25;;;;;12.81;58.17;100466.22;5039093;28;11559;-67
2020/12/01 23:24:03;;;;;;;;;2.50;2.50;;;;;11.85;60.98;100450.00;5040371;28;11536;-66
2020/12/01 23:26:33;;;;;;;;;2.00;2.00;;;;;12.50;60.44;100461.72;5039810;28;11497;-66
2020/12/01 23:29:04;;;;;;;;;2.50;2.50;;;;;11.90;60.83;100459.69;5039679;28;12353;-67
2020/12/01 23:31:34;;;;;;;;;1.25;1.00;;;;;11.41;62.74;100447.06;5039589;28;11582;-66
2020/12/01 23:34:00;;;;;;;;;3.75;3.75;;;;;11.48;64.18;100458.47;5039868;28;11582;-66
2020/12/01 23:36:27;;;;;;;;;1.00;1.00;;;;;11.84;62.72;100448.25;5040070;28;12207;-66
2020/12/01 23:38:54;;;;;;;;;2.00;2.00;;;;;12.40;61.14;100452.06;5038609;28;12360;-67
2020/12/01 23:41:26;;;;;;;;;3.75;1.00;;;;;12.21;62.20;100439.72;5041388;28;11485;-66
2020/12/01 23:44:06;;;;;;;;;1.50;1.50;;;;;11.98;62.07;100441.38;5040541;28;12313;-67
2020/12/01 23:46:39;;;;;;;;;1.50;1.50;;;;;12.46;61.70;100436.34;5040190;28;11514;-66
2020/12/01 23:49:13;;;;;;;;;1.75;1.75;;;;;12.45;60.99;100434.59;5038939;28;11572;-66
2020/12/01 23:51:40;;;;;;;;;3.00;1.25;;;;;10.68;67.43;100441.13;5041092;28;11493;-66
2020/12/01 23:54:06;;;;;;;;;3.00;2.00;;;;;10.91;67.07;100450.09;5038694;28;11513;-67
2020/12/01 23:56:33;;;;;;;;;1.50;1.50;;;;;10.89;66.92;100443.97;5040083;28;11518;-66
2020/12/01 23:58:59;;;;;;;;;2.25;1.75;;;;;10.94;67.85;100442.25;5039432;28;12275;-66
